General Aviation Weather

Text Reports

Enter one or more of the following location identifiers separated by a space:

Zip Code, Four-Character ICAO or Three-Character IATA airport codes.

METAR - Aviation Routine Weather Report
HEAT - Asyut,
Updated at 2:00 PM GMT on December 28, 2014 (4:00 PM EET):
METAR HEAT 281400Z 36009KT CAVOK 18/02 Q1022 NOSIG
TAF - Terminal Area Forecast
HEAT - Asyut,
Updated at 2:00 PM GMT on December 28, 2014 (4:00 PM EET):
TAF HEAT 281100Z 2812/2918 30007KT CAVOK=
Decoded:
ID: HEAT   Asyut, EG
REPORT TIME: 27 23: 0
VALID TIME: 28 December AT 00:00Z to 29 December AT 06:00Z.
INITIAL WX
   WINDS: 340 AT 10
   WEATHER: CAVOK
   COMMENTS: = 

PIREP - Pilot Weather Report
HEAT - Asyut,
Updated at 2:00 PM GMT on December 28, 2014 (4:00 PM EET):
No PIREP is currently available for this location.
AIRMET - Airmens Meteorological Information
HEAT - Asyut,
Updated at 2:00 PM GMT on December 28, 2014 (4:00 PM EET):
No AIRMET is currently available for this location.
SIGMET - Significant Meteorological Information
HEAT - Asyut,
Updated at 2:00 PM GMT on December 28, 2014 (4:00 PM EET):
No SIGMET is currently available for this location.
NOTAM - Notice to Airmen
HEAT - Asyut,
Updated at 2:00 PM GMT on December 28, 2014 (4:00 PM EET):
No NOTAM is currently available for this location.
Forecast Area
HEAT - Asyut,
Updated at 2:00 PM GMT on December 28, 2014 (4:00 PM EET):
No NOTAM is currently available for this location.
Aviation Weather Maps